createdAt,value
2019-03-10T00:00:50.911Z,100994.05
2019-03-10T00:03:22.477Z,100991.89
2019-03-10T00:05:52.430Z,100983.51
2019-03-10T00:08:22.364Z,100982.44
2019-03-10T00:10:52.914Z,100981.48
2019-03-10T00:13:24.639Z,100969.02
2019-03-10T00:15:54.589Z,100970.81
2019-03-10T00:18:24.532Z,100966.28
2019-03-10T00:20:54.539Z,100955.73
2019-03-10T00:23:25.359Z,100954.05
2019-03-10T00:25:55.336Z,100951.90
2019-03-10T00:28:27.362Z,100942.67
2019-03-10T00:31:04.522Z,100933.71
2019-03-10T00:33:34.796Z,100936.23
2019-03-10T00:36:04.719Z,100917.54
2019-03-10T00:38:47.410Z,100931.55
2019-03-10T00:42:07.264Z,100929.98
2019-03-10T00:45:32.771Z,100935.39
2019-03-10T00:48:39.417Z,100938.72
2019-03-10T00:51:45.553Z,100931.07
2019-03-10T00:54:15.956Z,100928.44
2019-03-10T00:56:45.886Z,100914.90
2019-03-10T00:59:15.829Z,100904.95
2019-03-10T01:01:45.697Z,100908.53
2019-03-10T01:04:15.673Z,100910.22
2019-03-10T01:06:45.615Z,100906.16
2019-03-10T01:09:15.652Z,100916.33
2019-03-10T01:11:45.915Z,100902.68
2019-03-10T01:14:15.863Z,100891.56
2019-03-10T01:16:47.455Z,100881.97
2019-03-10T01:19:19.019Z,100890.72
2019-03-10T01:21:49.992Z,100881.02
2019-03-10T01:24:19.959Z,100880.06
2019-03-10T01:26:53.486Z,100865.58
2019-03-10T01:29:23.580Z,100874.80
2019-03-10T01:32:13.010Z,100866.75
2019-03-10T01:34:52.682Z,100862.33
2019-03-10T01:37:25.758Z,100848.83
2019-03-10T01:39:56.115Z,100836.83
2019-03-10T01:42:25.914Z,100820.55
2019-03-10T01:44:55.882Z,100806.17
2019-03-10T01:47:25.769Z,100793.84
2019-03-10T01:49:55.699Z,100799.47
2019-03-10T01:52:25.918Z,100778.77
2019-03-10T01:54:56.216Z,100771.59
2019-03-10T01:57:26.392Z,100767.97
2019-03-10T01:59:56.328Z,100768.33
2019-03-10T02:02:26.184Z,100759.48
2019-03-10T02:04:56.327Z,100746.42
2019-03-10T02:07:26.565Z,100744.03
2019-03-10T02:09:56.506Z,100733.38
2019-03-10T02:12:27.393Z,100726.68
2019-03-10T02:14:57.318Z,100706.33
2019-03-10T02:17:27.166Z,100692.09
2019-03-10T02:19:57.124Z,100678.31
2019-03-10T02:22:27.015Z,100681.31
2019-03-10T02:24:57.030Z,100675.57
2019-03-10T02:27:27.232Z,100672.78
2019-03-10T02:29:58.310Z,100663.56
2019-03-10T02:32:28.594Z,100654.34
2019-03-10T02:34:58.462Z,100642.16
2019-03-10T02:37:28.325Z,100646.11
2019-03-10T02:39:59.224Z,100642.48
2019-03-10T02:42:29.232Z,100629.67
2019-03-10T02:44:59.212Z,100620.81
2019-03-10T02:47:29.492Z,100605.12
2019-03-10T02:50:00.269Z,100594.58
2019-03-10T02:52:30.292Z,100584.52
2019-03-10T02:55:00.399Z,100577.72
2019-03-10T02:57:30.690Z,100570.03
2019-03-10T03:00:00.548Z,100579.61
2019-03-10T03:02:32.090Z,100574.34
2019-03-10T03:05:03.407Z,100569.70
2019-03-10T03:07:34.311Z,100550.75
2019-03-10T03:10:04.873Z,100537.81
2019-03-10T03:12:35.086Z,100533.98
2019-03-10T03:15:05.159Z,100531.82
2019-03-10T03:17:35.044Z,100527.03
2019-03-10T03:20:05.465Z,100517.33
2019-03-10T03:22:35.428Z,100508.86
2019-03-10T03:25:06.134Z,100511.85
2019-03-10T03:27:36.092Z,100500.83
2019-03-10T03:30:06.562Z,100503.11
2019-03-10T03:32:36.886Z,100490.18
2019-03-10T03:35:34.638Z,100491.62
2019-03-10T03:38:04.615Z,100486.86
2019-03-10T03:40:34.521Z,100474.89
2019-03-10T03:43:04.749Z,100471.69
2019-03-10T03:45:34.603Z,100468.81
2019-03-10T03:48:05.810Z,100460.70
2019-03-10T03:50:35.693Z,100447.30
2019-03-10T03:53:05.762Z,100444.21
2019-03-10T03:55:35.887Z,100439.42
2019-03-10T03:58:05.763Z,100431.64
2019-03-10T04:00:36.051Z,100421.02
2019-03-10T04:03:06.049Z,100417.30
2019-03-10T04:05:35.993Z,100411.70
2019-03-10T04:08:06.215Z,100398.42
2019-03-10T04:10:37.367Z,100391.84
2019-03-10T04:13:07.948Z,100380.84
2019-03-10T04:15:37.800Z,100374.62
2019-03-10T04:18:07.668Z,100375.22
2019-03-10T04:20:37.554Z,100366.01
2019-03-10T04:23:08.117Z,100354.92
2019-03-10T04:25:38.068Z,100354.67
2019-03-10T04:28:07.938Z,100348.69
2019-03-10T04:30:37.922Z,100345.83
2019-03-10T04:33:07.797Z,100333.63
2019-03-10T04:35:38.649Z,100324.79
2019-03-10T04:38:08.945Z,100329.19
2019-03-10T04:40:38.861Z,100318.78
2019-03-10T04:43:08.640Z,100315.08
2019-03-10T04:45:38.597Z,100303.96
2019-03-10T04:48:11.299Z,100291.37
2019-03-10T04:50:41.271Z,100287.19
2019-03-10T04:53:11.188Z,100276.78
2019-03-10T04:55:54.980Z,100268.77
2019-03-10T04:58:24.746Z,100258.72
2019-03-10T05:00:56.556Z,100257.05
2019-03-10T05:03:26.401Z,100249.16
2019-03-10T05:05:56.719Z,100235.16
2019-03-10T05:08:26.579Z,100230.14
2019-03-10T05:10:58.101Z,100216.98
2019-03-10T05:13:28.676Z,100213.03
2019-03-10T05:15:59.043Z,100206.45
2019-03-10T05:18:28.951Z,100189.36
2019-03-10T05:20:59.996Z,100175.59
2019-03-10T05:23:40.899Z,100165.43
2019-03-10T05:26:11.063Z,100150.60
2019-03-10T05:28:46.381Z,100132.66
2019-03-10T05:31:16.504Z,100124.30
2019-03-10T05:33:46.467Z,100110.30
2019-03-10T05:36:16.401Z,100099.42
2019-03-10T05:38:46.645Z,100091.78
2019-03-10T05:41:16.815Z,100087.84
2019-03-10T05:43:47.051Z,100063.92
2019-03-10T05:46:17.178Z,100055.69
2019-03-10T05:48:46.980Z,100029.38
2019-03-10T05:51:16.945Z,100022.57
2019-03-10T05:53:48.353Z,100021.73
2019-03-10T05:56:18.122Z,100019.11
2019-03-10T05:58:48.305Z,100010.73
2019-03-10T06:01:18.523Z,100000.02
2019-03-10T06:03:48.733Z,100004.92
2019-03-10T06:06:19.636Z,99998.60
2019-03-10T06:08:49.502Z,99999.20
2019-03-10T06:11:19.892Z,99991.67
2019-03-10T06:13:49.675Z,99996.23
2019-03-10T06:16:19.532Z,99985.70
2019-03-10T06:18:50.571Z,99981.41
2019-03-10T06:21:20.858Z,99978.42
2019-03-10T06:23:50.674Z,99971.14
2019-03-10T06:26:20.892Z,99964.56
2019-03-10T06:28:51.153Z,99946.98
2019-03-10T06:31:20.973Z,99940.90
2019-03-10T06:33:50.926Z,99923.93
2019-03-10T06:36:22.353Z,99918.67
2019-03-10T06:38:55.115Z,99918.00
2019-03-10T06:41:24.486Z,99900.42
2019-03-10T06:43:54.421Z,99885.48
2019-03-10T06:46:24.627Z,99872.33
2019-03-10T06:48:54.477Z,99863.92
2019-03-10T06:51:24.596Z,99853.09
2019-03-10T06:53:54.521Z,99836.66
2019-03-10T06:56:24.709Z,99831.89
2019-03-10T06:58:54.573Z,99826.80
2019-03-10T07:01:24.527Z,99827.11
2019-03-10T07:03:55.527Z,99816.94
2019-03-10T07:06:25.407Z,99808.70
2019-03-10T07:08:55.611Z,99791.95
2019-03-10T07:11:25.845Z,99798.89
2019-03-10T07:13:55.724Z,99772.88
2019-03-10T07:16:25.673Z,99768.77
2019-03-10T07:18:55.482Z,99770.44
2019-03-10T07:21:25.443Z,99757.16
2019-03-10T07:23:55.679Z,99741.73
2019-03-10T07:26:25.747Z,99742.21
2019-03-10T07:29:14.521Z,99744.70
2019-03-10T07:31:48.790Z,99743.74
2019-03-10T07:34:36.510Z,99735.72
2019-03-10T07:37:18.487Z,99730.33
2019-03-10T07:40:25.896Z,99724.37
2019-03-10T07:43:06.438Z,99722.17
2019-03-10T07:46:01.274Z,99716.61
2019-03-10T07:49:00.327Z,99713.09
2019-03-10T07:51:49.314Z,99714.91
2019-03-10T07:54:38.528Z,99701.80
2019-03-10T07:57:17.200Z,99687.55
2019-03-10T08:00:05.222Z,99688.23
2019-03-10T08:02:45.546Z,99679.86
2019-03-10T08:05:25.036Z,99684.16
2019-03-10T08:08:11.552Z,99694.55
2019-03-10T08:10:59.677Z,99695.94
2019-03-10T08:13:57.685Z,99680.05
2019-03-10T08:16:38.724Z,99683.66
2019-03-10T08:19:34.172Z,99681.62
2019-03-10T08:22:23.103Z,99682.38
2019-03-10T08:25:14.099Z,99679.16
2019-03-10T08:28:01.666Z,99670.02
2019-03-10T08:30:53.964Z,99671.05
2019-03-10T08:33:41.598Z,99655.97
2019-03-10T08:36:24.129Z,99636.00
2019-03-10T08:39:07.531Z,99666.38
2019-03-10T08:41:50.276Z,99665.53
2019-03-10T08:44:33.983Z,99676.65
2019-03-10T08:47:26.172Z,99669.35
2019-03-10T08:50:13.862Z,99678.00
2019-03-10T08:52:55.866Z,99675.83
2019-03-10T08:55:33.554Z,99670.63
2019-03-10T08:58:22.500Z,99662.98
2019-03-10T09:01:10.539Z,99665.39
2019-03-10T09:04:11.881Z,99657.44
2019-03-10T09:06:59.370Z,99653.84
2019-03-10T09:09:51.047Z,99642.51
2019-03-10T09:12:27.217Z,99639.23
2019-03-10T09:15:07.055Z,99640.42
2019-03-10T09:17:54.798Z,99633.23
2019-03-10T09:20:50.324Z,99629.31
2019-03-10T09:23:28.595Z,99633.62
2019-03-10T09:26:33.048Z,99626.05
2019-03-10T09:29:20.683Z,99622.77
2019-03-10T09:32:12.302Z,99628.67
2019-03-10T09:34:48.983Z,99626.34
2019-03-10T09:37:24.923Z,99622.61
2019-03-10T09:40:05.286Z,99625.77
2019-03-10T09:43:01.968Z,99611.89
2019-03-10T09:46:00.274Z,99610.88
2019-03-10T09:49:01.190Z,99618.72
2019-03-10T09:51:43.476Z,99633.84
2019-03-10T09:54:31.319Z,99599.83
2019-03-10T09:57:09.552Z,99616.27
2019-03-10T09:59:58.539Z,99608.00
2019-03-10T10:02:46.539Z,99600.23
2019-03-10T10:05:21.836Z,99626.33
2019-03-10T10:08:02.097Z,99602.77
2019-03-10T10:10:50.039Z,99639.12
2019-03-10T10:13:32.356Z,99603.86
2019-03-10T10:16:22.751Z,99597.86
2019-03-10T10:19:11.821Z,99585.17
2019-03-10T10:21:55.632Z,99588.70
2019-03-10T10:24:47.573Z,99579.20
2019-03-10T10:27:46.440Z,99560.92
2019-03-10T10:30:38.515Z,99574.48
2019-03-10T10:33:13.880Z,99579.64
2019-03-10T10:36:02.775Z,99566.78
2019-03-10T10:39:01.157Z,99576.88
2019-03-10T10:41:53.466Z,99572.59
2019-03-10T10:44:45.171Z,99587.13
2019-03-10T10:47:34.537Z,99569.14
2019-03-10T10:50:13.933Z,99577.88
2019-03-10T10:53:01.826Z,99657.66
2019-03-10T10:55:58.482Z,99565.97
2019-03-10T10:58:57.124Z,99577.15
2019-03-10T11:01:52.579Z,99546.41
2019-03-10T11:04:53.914Z,99541.44
2019-03-10T11:07:42.843Z,99543.79
2019-03-10T11:10:30.069Z,99521.69
2019-03-10T11:13:37.517Z,99543.20
2019-03-10T11:16:22.743Z,99521.57
2019-03-10T11:19:12.366Z,99521.74
2019-03-10T11:21:58.608Z,99517.62
2019-03-10T11:24:52.678Z,99526.39
2019-03-10T11:27:47.969Z,99566.40
2019-03-10T11:30:37.751Z,99551.20
2019-03-10T11:33:27.602Z,99552.34
2019-03-10T11:36:15.840Z,99570.70
2019-03-10T11:39:20.576Z,99548.20
2019-03-10T11:42:08.395Z,99522.90
2019-03-10T11:44:49.912Z,99548.78
2019-03-10T11:47:45.901Z,99597.48
2019-03-10T11:50:45.276Z,99571.02
2019-03-10T11:53:21.457Z,99583.45
2019-03-10T11:56:04.145Z,99585.12
2019-03-10T11:58:46.637Z,99575.53
2019-03-10T12:01:54.898Z,99572.13
2019-03-10T12:04:35.762Z,99590.81
2019-03-10T12:07:24.810Z,99624.19
2019-03-10T12:09:54.888Z,99601.86
2019-03-10T12:12:25.197Z,99583.80
2019-03-10T12:14:56.441Z,99605.23
2019-03-10T12:17:26.380Z,99604.11
2019-03-10T12:19:56.189Z,99605.92
2019-03-10T12:22:26.064Z,99640.78
2019-03-10T12:24:55.912Z,99626.55
2019-03-10T12:27:26.122Z,99606.89
2019-03-10T12:29:56.013Z,99624.38
2019-03-10T12:32:26.269Z,99626.23
2019-03-10T12:34:57.757Z,99615.89
2019-03-10T12:37:27.728Z,99601.81
2019-03-10T12:39:57.633Z,99600.59
2019-03-10T12:42:27.688Z,99643.64
2019-03-10T12:44:59.343Z,99611.19
2019-03-10T12:47:29.303Z,99644.86
2019-03-10T12:49:59.592Z,99686.09
2019-03-10T12:52:29.443Z,99595.56
2019-03-10T12:54:59.286Z,99601.55
2019-03-10T12:57:29.203Z,99652.53
2019-03-10T12:59:59.164Z,99621.84
2019-03-10T13:02:28.946Z,99671.39
2019-03-10T13:04:58.894Z,99601.26
2019-03-10T13:07:28.822Z,99602.58
2019-03-10T13:09:58.774Z,99665.98
2019-03-10T13:12:28.653Z,99613.19
2019-03-10T13:14:59.915Z,99602.30
2019-03-10T13:17:29.886Z,99621.19
2019-03-10T13:20:00.275Z,99663.50
2019-03-10T13:22:30.107Z,99634.45
2019-03-10T13:24:59.985Z,99614.98
2019-03-10T13:27:29.924Z,99625.25
2019-03-10T13:30:01.932Z,99651.03
2019-03-10T13:32:32.463Z,99636.33
2019-03-10T13:35:02.416Z,99645.38
2019-03-10T13:37:32.632Z,99638.37
2019-03-10T13:40:02.976Z,99752.48
2019-03-10T13:42:34.336Z,99694.84
2019-03-10T13:45:04.531Z,99686.44
2019-03-10T13:47:34.404Z,99706.33
2019-03-10T13:50:04.930Z,99690.69
2019-03-10T13:52:34.802Z,99695.90
2019-03-10T13:55:08.027Z,99697.14
2019-03-10T13:57:38.929Z,99701.17
2019-03-10T14:00:11.497Z,99757.80
2019-03-10T14:02:41.459Z,99727.39
2019-03-10T14:05:11.716Z,99748.77
2019-03-10T14:07:41.828Z,99766.02
2019-03-10T14:10:12.164Z,99816.23
2019-03-10T14:12:42.192Z,99809.63
2019-03-10T14:15:12.139Z,99788.37
2019-03-10T14:17:42.074Z,99816.97
2019-03-10T14:20:12.011Z,99778.91
2019-03-10T14:22:42.061Z,99841.74
2019-03-10T14:25:12.704Z,99854.55
2019-03-10T14:27:43.098Z,99896.30
2019-03-10T14:30:13.771Z,99854.63
2019-03-10T14:32:43.813Z,99863.56
2019-03-10T14:35:14.840Z,99981.34
2019-03-10T14:37:45.094Z,99877.82
2019-03-10T14:40:19.476Z,99895.48
2019-03-10T14:42:49.418Z,99911.58
2019-03-10T14:45:19.901Z,99886.82
2019-03-10T14:47:50.014Z,99933.84
2019-03-10T14:50:42.735Z,99972.55
2019-03-10T14:53:12.706Z,99916.66
2019-03-10T14:55:42.801Z,99954.95
2019-03-10T14:58:13.710Z,99953.03
2019-03-10T15:00:43.721Z,100141.44
2019-03-10T15:03:13.695Z,99999.16
2019-03-10T15:05:43.469Z,100005.88
2019-03-10T15:08:13.418Z,100011.77
2019-03-10T15:10:43.356Z,100003.39
2019-03-10T15:13:13.297Z,99993.22
2019-03-10T15:15:43.236Z,100122.11
2019-03-10T15:18:13.100Z,100032.82
2019-03-10T15:20:42.868Z,100029.22
2019-03-10T15:23:13.090Z,100047.56
2019-03-10T15:25:42.932Z,100053.40
2019-03-10T15:28:13.190Z,100073.34
2019-03-10T15:30:43.114Z,100060.38
2019-03-10T15:33:13.121Z,100076.55
2019-03-10T15:35:42.925Z,100084.55
2019-03-10T15:38:12.790Z,100085.69
2019-03-10T15:40:42.664Z,100101.14
2019-03-10T15:43:13.597Z,100113.30
2019-03-10T15:45:43.540Z,100176.36
2019-03-10T15:48:13.634Z,100140.88
2019-03-10T15:50:43.582Z,100167.16
2019-03-10T15:53:13.564Z,100187.55
2019-03-10T15:55:43.360Z,100212.55
2019-03-10T15:58:13.396Z,100187.97
2019-03-10T16:00:43.319Z,100220.77
2019-03-10T16:03:13.634Z,100209.42
2019-03-10T16:05:43.501Z,100222.19
2019-03-10T16:08:13.451Z,100214.09
2019-03-10T16:10:44.994Z,100248.39
2019-03-10T16:13:15.265Z,100266.88
2019-03-10T16:15:45.115Z,100247.18
2019-03-10T16:18:15.580Z,100259.43
2019-03-10T16:20:45.459Z,100242.11
2019-03-10T16:23:15.743Z,100322.91
2019-03-10T16:25:45.645Z,100301.87
2019-03-10T16:28:15.673Z,100346.90
2019-03-10T16:30:45.662Z,100309.58
2019-03-10T16:33:18.932Z,100363.18
2019-03-10T16:35:50.488Z,100348.98
2019-03-10T16:38:21.768Z,100347.19
2019-03-10T16:40:51.611Z,100369.44
2019-03-10T16:43:21.413Z,100362.88
2019-03-10T16:45:52.139Z,100389.55
2019-03-10T16:48:22.489Z,100404.87
2019-03-10T16:50:52.695Z,100387.16
2019-03-10T16:53:22.639Z,100409.41
2019-03-10T16:56:02.483Z,100498.59
2019-03-10T16:58:24.105Z,100448.85
2019-03-10T17:00:54.061Z,100449.42
2019-03-10T17:03:23.982Z,100431.13
2019-03-10T17:05:53.986Z,100477.03
2019-03-10T17:08:23.811Z,100453.09
2019-03-10T17:10:53.745Z,100456.31
2019-03-10T17:13:23.647Z,100474.94
2019-03-10T17:15:53.602Z,100469.57
2019-03-10T17:18:23.534Z,100490.81
2019-03-10T17:20:53.882Z,100494.69
2019-03-10T17:23:23.802Z,100506.15
2019-03-10T17:25:55.181Z,100523.59
2019-03-10T17:28:25.105Z,100523.81
2019-03-10T17:30:55.588Z,100533.22
2019-03-10T17:33:25.541Z,100553.41
2019-03-10T17:35:55.410Z,100540.73
2019-03-10T17:38:25.635Z,100540.38
2019-03-10T17:40:55.497Z,100580.98
2019-03-10T17:43:30.404Z,100556.50
2019-03-10T17:46:00.694Z,100585.98
2019-03-10T17:48:30.954Z,100585.51
2019-03-10T17:51:01.254Z,100601.38
2019-03-10T17:53:31.289Z,100599.48
2019-03-10T17:56:01.655Z,100615.61
2019-03-10T17:58:34.023Z,100614.52
2019-03-10T18:01:03.704Z,100632.48
2019-03-10T18:03:33.609Z,100631.53
2019-03-10T18:06:03.916Z,100658.38
2019-03-10T18:08:34.490Z,100620.50
2019-03-10T18:11:04.408Z,100669.37
2019-03-10T18:13:34.684Z,100658.80
2019-03-10T18:16:04.570Z,100654.76
2019-03-10T18:18:34.414Z,100675.56
2019-03-10T18:21:04.352Z,100663.27
2019-03-10T18:23:34.228Z,100671.99
2019-03-10T18:26:04.155Z,100673.41
2019-03-10T18:28:33.947Z,100676.25
2019-03-10T18:31:03.784Z,100674.94
2019-03-10T18:33:33.995Z,100666.00
2019-03-10T18:36:03.863Z,100671.58
2019-03-10T18:38:34.219Z,100694.98
2019-03-10T18:41:04.146Z,100693.20
2019-03-10T18:43:34.043Z,100705.59
2019-03-10T18:46:03.982Z,100697.77
2019-03-10T18:48:34.176Z,100741.94
2019-03-10T18:51:04.315Z,100786.22
2019-03-10T18:53:34.265Z,100734.73
2019-03-10T18:56:04.217Z,100751.44
2019-03-10T18:58:34.092Z,100742.11
2019-03-10T19:01:04.818Z,100762.55
2019-03-10T19:03:35.041Z,100759.86
2019-03-10T19:06:04.989Z,100774.88
2019-03-10T19:08:35.376Z,100779.38
2019-03-10T19:11:05.578Z,100802.55
2019-03-10T19:13:35.451Z,100785.44
2019-03-10T19:16:05.773Z,100817.99
2019-03-10T19:18:35.737Z,100795.50
2019-03-10T19:21:06.994Z,100815.27
2019-03-10T19:23:37.016Z,100812.84
2019-03-10T19:26:06.974Z,100806.37
2019-03-10T19:28:36.886Z,100802.44
2019-03-10T19:31:06.887Z,100806.84
2019-03-10T19:33:37.320Z,100810.41
2019-03-10T19:36:07.547Z,100816.60
2019-03-10T19:38:37.506Z,100819.98
2019-03-10T19:41:07.376Z,100829.98
2019-03-10T19:43:37.760Z,100838.80
2019-03-10T19:46:07.616Z,100861.44
2019-03-10T19:48:37.671Z,100872.45
2019-03-10T19:51:08.520Z,100908.55
2019-03-10T19:53:38.541Z,100870.36
2019-03-10T19:56:08.452Z,100846.23
2019-03-10T19:58:38.445Z,100845.00
2019-03-10T20:01:08.390Z,100858.48
2019-03-10T20:03:38.555Z,100852.02
2019-03-10T20:06:08.504Z,100852.23
2019-03-10T20:08:38.483Z,100852.80
2019-03-10T20:11:08.648Z,100851.86
2019-03-10T20:13:38.606Z,100863.44
2019-03-10T20:16:08.460Z,100854.64
2019-03-10T20:18:38.953Z,100888.92
2019-03-10T20:21:09.469Z,100919.26
2019-03-10T20:23:40.697Z,100974.14
2019-03-10T20:26:10.743Z,101029.98
2019-03-10T20:28:41.067Z,101022.41
2019-03-10T20:31:11.084Z,101043.56
2019-03-10T20:33:40.927Z,101029.16
2019-03-10T20:36:11.214Z,101037.05
2019-03-10T20:38:41.260Z,101041.96
2019-03-10T20:41:11.480Z,101024.05
2019-03-10T20:43:41.470Z,101041.95
2019-03-10T20:46:11.422Z,101010.91
2019-03-10T20:48:41.436Z,100983.72
2019-03-10T20:51:13.195Z,100953.77
2019-03-10T20:53:43.224Z,100936.98
2019-03-10T20:56:13.551Z,100951.55
2019-03-10T20:58:43.528Z,100941.66
2019-03-10T21:01:13.819Z,100955.41
2019-03-10T21:03:43.805Z,100953.02
2019-03-10T21:06:14.219Z,100961.32
2019-03-10T21:08:44.153Z,100969.85
2019-03-10T21:11:14.113Z,100978.14
2019-03-10T21:13:43.965Z,100983.96
2019-03-10T21:16:18.317Z,100975.98
2019-03-10T21:18:48.510Z,100977.20
2019-03-10T21:21:18.435Z,100974.83
2019-03-10T21:23:48.755Z,100979.59
2019-03-10T21:26:19.111Z,100975.34
2019-03-10T21:28:48.982Z,100980.11
2019-03-10T21:31:19.344Z,100976.19
2019-03-10T21:33:49.200Z,100985.02
2019-03-10T21:36:20.349Z,100990.25
2019-03-10T21:38:50.484Z,100985.02
2019-03-10T21:41:23.662Z,100986.03
2019-03-10T21:43:55.053Z,100980.50
2019-03-10T21:46:25.151Z,100979.02
2019-03-10T21:48:55.376Z,100983.02
2019-03-10T21:51:25.345Z,100989.36
2019-03-10T21:54:02.880Z,100994.02
2019-03-10T21:56:28.055Z,100992.32
2019-03-10T21:58:58.123Z,100994.05
2019-03-10T22:01:29.043Z,100988.59
2019-03-10T22:03:59.179Z,100986.58
2019-03-10T22:06:29.198Z,100988.46
2019-03-10T22:08:59.483Z,100989.99
2019-03-10T22:11:29.396Z,100990.38
2019-03-10T22:14:00.561Z,100991.98
2019-03-10T22:16:30.777Z,100993.59
2019-03-10T22:19:00.721Z,100992.67
2019-03-10T22:21:30.837Z,100996.98
2019-03-10T22:24:03.134Z,100991.55
2019-03-10T22:26:33.085Z,100995.48
2019-03-10T22:29:04.237Z,100991.01
2019-03-10T22:31:34.329Z,100987.77
2019-03-10T22:34:04.420Z,100991.31
2019-03-10T22:36:34.434Z,100992.92
2019-03-10T22:39:05.194Z,100988.84
2019-03-10T22:41:35.522Z,100985.67
2019-03-10T22:44:05.730Z,100985.48
2019-03-10T22:46:35.913Z,100980.63
2019-03-10T22:49:06.165Z,100988.67
2019-03-10T22:51:36.021Z,100979.52
2019-03-10T22:54:06.032Z,100976.31
2019-03-10T22:56:36.045Z,100974.77
2019-03-10T22:59:07.274Z,100973.35
2019-03-10T23:01:37.236Z,100965.59
2019-03-10T23:04:07.179Z,100961.92
2019-03-10T23:06:37.124Z,100969.05
2019-03-10T23:09:08.532Z,100959.89
2019-03-10T23:11:39.722Z,100965.59
2019-03-10T23:14:09.672Z,100966.15
2019-03-10T23:16:39.893Z,100964.67
2019-03-10T23:19:09.820Z,100957.89
2019-03-10T23:21:39.743Z,100952.11
2019-03-10T23:24:09.577Z,100957.14
2019-03-10T23:26:40.445Z,100956.68
2019-03-10T23:29:10.408Z,100953.43
2019-03-10T23:31:42.242Z,100945.87
2019-03-10T23:34:12.248Z,100957.66
2019-03-10T23:36:42.441Z,100942.03
2019-03-10T23:39:12.382Z,100942.58
2019-03-10T23:41:43.005Z,100931.56
2019-03-10T23:44:12.950Z,100927.09
2019-03-10T23:46:42.815Z,100917.92
2019-03-10T23:49:13.208Z,100914.87
2019-03-10T23:51:43.286Z,100923.11
2019-03-10T23:54:13.145Z,100910.31
2019-03-10T23:56:44.178Z,100902.55
2019-03-10T23:59:15.030Z,100909.68
